sensor_id;sensor_type;location;lat;lon;timestamp;P1;durP1;ratioP1;P2;durP2;ratioP2
20012;SDS011;10167;42.852;23.042;2022-09-04T00:02:50;6.78;;;2.72;;
20012;SDS011;10167;42.852;23.042;2022-09-04T00:05:29;7.55;;;2.08;;
20012;SDS011;10167;42.852;23.042;2022-09-04T00:08:10;5.60;;;2.28;;
20012;SDS011;10167;42.852;23.042;2022-09-04T00:10:59;4.47;;;2.53;;
20012;SDS011;10167;42.852;23.042;2022-09-04T00:13:36;5.30;;;2.30;;
20012;SDS011;10167;42.852;23.042;2022-09-04T00:16:11;5.57;;;2.92;;
20012;SDS011;10167;42.852;23.042;2022-09-04T00:18:48;9.38;;;3.78;;
20012;SDS011;10167;42.852;23.042;2022-09-04T00:21:25;4.20;;;2.33;;
20012;SDS011;10167;42.852;23.042;2022-09-04T00:24:02;4.32;;;2.08;;
20012;SDS011;10167;42.852;23.042;2022-09-04T00:26:37;7.30;;;3.35;;
20012;SDS011;10167;42.852;23.042;2022-09-04T00:29:13;4.30;;;2.45;;
20012;SDS011;10167;42.852;23.042;2022-09-04T00:31:49;4.25;;;2.30;;
20012;SDS011;10167;42.852;23.042;2022-09-04T00:34:29;7.45;;;2.63;;
20012;SDS011;10167;42.852;23.042;2022-09-04T00:37:16;4.15;;;2.10;;
20012;SDS011;10167;42.852;23.042;2022-09-04T00:39:49;4.60;;;3.03;;
20012;SDS011;10167;42.852;23.042;2022-09-04T00:42:31;7.03;;;3.58;;
20012;SDS011;10167;42.852;23.042;2022-09-04T00:45:20;5.88;;;2.72;;
20012;SDS011;10167;42.852;23.042;2022-09-04T00:48:05;5.10;;;2.22;;
20012;SDS011;10167;42.852;23.042;2022-09-04T00:51:00;3.60;;;2.25;;
20012;SDS011;10167;42.852;23.042;2022-09-04T01:02:31;3.38;;;1.90;;
20012;SDS011;10167;42.852;23.042;2022-09-04T01:05:19;4.32;;;2.25;;
20012;SDS011;10167;42.852;23.042;2022-09-04T01:08:02;5.72;;;2.60;;
20012;SDS011;10167;42.852;23.042;2022-09-04T01:10:44;6.15;;;2.55;;
20012;SDS011;10167;42.852;23.042;2022-09-04T01:13:19;3.03;;;2.08;;
20012;SDS011;10167;42.852;23.042;2022-09-04T01:16:02;5.90;;;2.78;;
20012;SDS011;10167;42.852;23.042;2022-09-04T01:18:39;4.63;;;2.22;;
20012;SDS011;10167;42.852;23.042;2022-09-04T01:21:21;4.45;;;2.55;;
20012;SDS011;10167;42.852;23.042;2022-09-04T01:24:05;4.55;;;2.30;;
20012;SDS011;10167;42.852;23.042;2022-09-04T01:26:48;7.50;;;2.60;;
20012;SDS011;10167;42.852;23.042;2022-09-04T01:29:25;4.07;;;2.47;;
20012;SDS011;10167;42.852;23.042;2022-09-04T01:32:03;4.32;;;2.58;;
20012;SDS011;10167;42.852;23.042;2022-09-04T01:34:40;4.15;;;2.28;;
20012;SDS011;10167;42.852;23.042;2022-09-04T01:37:24;4.63;;;2.28;;
20012;SDS011;10167;42.852;23.042;2022-09-04T01:40:03;3.97;;;2.13;;
20012;SDS011;10167;42.852;23.042;2022-09-04T01:42:46;3.13;;;2.05;;
20012;SDS011;10167;42.852;23.042;2022-09-04T01:45:23;4.88;;;2.13;;
20012;SDS011;10167;42.852;23.042;2022-09-04T01:48:01;4.28;;;2.88;;
20012;SDS011;10167;42.852;23.042;2022-09-04T01:50:34;3.65;;;2.60;;
20012;SDS011;10167;42.852;23.042;2022-09-04T01:53:05;3.00;;;1.95;;
20012;SDS011;10167;42.852;23.042;2022-09-04T01:55:43;5.80;;;3.08;;
20012;SDS011;10167;42.852;23.042;2022-09-04T01:58:21;4.90;;;2.45;;
20012;SDS011;10167;42.852;23.042;2022-09-04T02:01:00;4.72;;;2.95;;
20012;SDS011;10167;42.852;23.042;2022-09-04T02:03:38;4.00;;;2.17;;
20012;SDS011;10167;42.852;23.042;2022-09-04T02:06:15;4.30;;;2.28;;
20012;SDS011;10167;42.852;23.042;2022-09-04T02:08:59;3.75;;;2.08;;
20012;SDS011;10167;42.852;23.042;2022-09-04T02:11:37;7.55;;;2.55;;
20012;SDS011;10167;42.852;23.042;2022-09-04T02:14:18;3.47;;;1.92;;
20012;SDS011;10167;42.852;23.042;2022-09-04T02:17:03;4.38;;;2.42;;
20012;SDS011;10167;42.852;23.042;2022-09-04T02:19:40;4.53;;;2.33;;
20012;SDS011;10167;42.852;23.042;2022-09-04T02:22:27;5.65;;;2.83;;
20012;SDS011;10167;42.852;23.042;2022-09-04T02:25:04;5.90;;;2.72;;
20012;SDS011;10167;42.852;23.042;2022-09-04T02:27:47;4.18;;;2.55;;
20012;SDS011;10167;42.852;23.042;2022-09-04T02:30:22;6.22;;;2.47;;
20012;SDS011;10167;42.852;23.042;2022-09-04T02:32:53;4.20;;;2.47;;
20012;SDS011;10167;42.852;23.042;2022-09-04T02:35:29;3.95;;;2.20;;
20012;SDS011;10167;42.852;23.042;2022-09-04T02:38:09;4.60;;;2.67;;
20012;SDS011;10167;42.852;23.042;2022-09-04T02:40:49;4.68;;;2.67;;
20012;SDS011;10167;42.852;23.042;2022-09-04T02:43:23;3.55;;;2.08;;
20012;SDS011;10167;42.852;23.042;2022-09-04T02:46:04;4.05;;;2.60;;
20012;SDS011;10167;42.852;23.042;2022-09-04T02:48:42;3.63;;;2.63;;
20012;SDS011;10167;42.852;23.042;2022-09-04T02:51:29;3.65;;;2.08;;
20012;SDS011;10167;42.852;23.042;2022-09-04T02:54:15;13.02;;;2.95;;
20012;SDS011;10167;42.852;23.042;2022-09-04T02:56:57;5.28;;;2.92;;
20012;SDS011;10167;42.852;23.042;2022-09-04T02:59:40;4.38;;;2.25;;
20012;SDS011;10167;42.852;23.042;2022-09-04T03:02:22;3.70;;;2.13;;
20012;SDS011;10167;42.852;23.042;2022-09-04T03:04:59;3.40;;;2.42;;
20012;SDS011;10167;42.852;23.042;2022-09-04T03:07:32;6.35;;;3.10;;
20012;SDS011;10167;42.852;23.042;2022-09-04T03:10:06;4.55;;;2.42;;
20012;SDS011;10167;42.852;23.042;2022-09-04T03:12:42;4.53;;;2.30;;
20012;SDS011;10167;42.852;23.042;2022-09-04T03:15:17;5.00;;;1.85;;
20012;SDS011;10167;42.852;23.042;2022-09-04T03:17:57;2.30;;;1.50;;
20012;SDS011;10167;42.852;23.042;2022-09-04T03:20:30;3.08;;;1.85;;
20012;SDS011;10167;42.852;23.042;2022-09-04T03:23:08;3.30;;;1.92;;
20012;SDS011;10167;42.852;23.042;2022-09-04T03:25:59;4.60;;;2.65;;
20012;SDS011;10167;42.852;23.042;2022-09-04T03:28:44;4.70;;;2.10;;
20012;SDS011;10167;42.852;23.042;2022-09-04T03:31:23;4.90;;;2.78;;
20012;SDS011;10167;42.852;23.042;2022-09-04T03:34:02;4.07;;;2.15;;
20012;SDS011;10167;42.852;23.042;2022-09-04T03:36:41;4.22;;;2.60;;
20012;SDS011;10167;42.852;23.042;2022-09-04T03:39:24;3.88;;;2.35;;
20012;SDS011;10167;42.852;23.042;2022-09-04T03:42:07;3.47;;;2.35;;
20012;SDS011;10167;42.852;23.042;2022-09-04T03:44:45;5.18;;;2.33;;
20012;SDS011;10167;42.852;23.042;2022-09-04T03:47:27;2.67;;;2.13;;
20012;SDS011;10167;42.852;23.042;2022-09-04T03:50:09;4.13;;;2.50;;
20012;SDS011;10167;42.852;23.042;2022-09-04T03:52:48;5.80;;;2.92;;
20012;SDS011;10167;42.852;23.042;2022-09-04T03:58:43;5.43;;;2.00;;
20012;SDS011;10167;42.852;23.042;2022-09-04T04:01:20;3.92;;;2.55;;
20012;SDS011;10167;42.852;23.042;2022-09-04T04:03:59;4.50;;;2.75;;
20012;SDS011;10167;42.852;23.042;2022-09-04T04:06:47;4.95;;;2.40;;
20012;SDS011;10167;42.852;23.042;2022-09-04T04:09:36;2.97;;;2.45;;
20012;SDS011;10167;42.852;23.042;2022-09-04T04:12:20;4.95;;;2.13;;
20012;SDS011;10167;42.852;23.042;2022-09-04T04:15:12;3.67;;;2.28;;
20012;SDS011;10167;42.852;23.042;2022-09-04T04:20:56;5.38;;;2.22;;
20012;SDS011;10167;42.852;23.042;2022-09-04T04:26:37;4.00;;;2.50;;
20012;SDS011;10167;42.852;23.042;2022-09-04T04:29:29;4.78;;;2.65;;
20012;SDS011;10167;42.852;23.042;2022-09-04T04:34:55;3.85;;;2.42;;
20012;SDS011;10167;42.852;23.042;2022-09-04T04:37:37;8.00;;;3.25;;
20012;SDS011;10167;42.852;23.042;2022-09-04T04:40:22;4.68;;;2.60;;
20012;SDS011;10167;42.852;23.042;2022-09-04T04:43:04;7.57;;;3.58;;
20012;SDS011;10167;42.852;23.042;2022-09-04T04:45:42;5.82;;;2.85;;
20012;SDS011;10167;42.852;23.042;2022-09-04T04:51:30;5.30;;;3.05;;
20012;SDS011;10167;42.852;23.042;2022-09-04T04:54:17;5.50;;;2.38;;
20012;SDS011;10167;42.852;23.042;2022-09-04T04:57:00;8.75;;;3.42;;
20012;SDS011;10167;42.852;23.042;2022-09-04T04:59:38;4.20;;;2.45;;
20012;SDS011;10167;42.852;23.042;2022-09-04T05:02:18;5.10;;;2.25;;
20012;SDS011;10167;42.852;23.042;2022-09-04T05:04:52;4.05;;;2.55;;
20012;SDS011;10167;42.852;23.042;2022-09-04T05:07:31;8.85;;;3.03;;
20012;SDS011;10167;42.852;23.042;2022-09-04T05:10:08;4.90;;;3.17;;
20012;SDS011;10167;42.852;23.042;2022-09-04T05:12:49;5.13;;;2.75;;
20012;SDS011;10167;42.852;23.042;2022-09-04T05:15:25;5.20;;;2.65;;
20012;SDS011;10167;42.852;23.042;2022-09-04T05:18:16;3.47;;;2.22;;
20012;SDS011;10167;42.852;23.042;2022-09-04T05:20:53;5.43;;;2.75;;
20012;SDS011;10167;42.852;23.042;2022-09-04T05:23:30;3.97;;;2.70;;
20012;SDS011;10167;42.852;23.042;2022-09-04T05:26:09;6.88;;;2.40;;
20012;SDS011;10167;42.852;23.042;2022-09-04T05:28:49;2.97;;;2.08;;
20012;SDS011;10167;42.852;23.042;2022-09-04T05:31:27;4.75;;;2.30;;
20012;SDS011;10167;42.852;23.042;2022-09-04T05:34:06;6.85;;;3.15;;
20012;SDS011;10167;42.852;23.042;2022-09-04T05:36:43;5.45;;;2.80;;
20012;SDS011;10167;42.852;23.042;2022-09-04T05:39:22;4.43;;;2.72;;
20012;SDS011;10167;42.852;23.042;2022-09-04T05:41:59;4.78;;;3.05;;
20012;SDS011;10167;42.852;23.042;2022-09-04T05:44:46;3.40;;;2.55;;
20012;SDS011;10167;42.852;23.042;2022-09-04T05:47:30;3.63;;;2.38;;
20012;SDS011;10167;42.852;23.042;2022-09-04T05:50:12;5.93;;;2.50;;
20012;SDS011;10167;42.852;23.042;2022-09-04T06:05:43;4.25;;;2.55;;
20012;SDS011;10167;42.852;23.042;2022-09-04T06:08:38;6.70;;;2.60;;
20012;SDS011;10167;42.852;23.042;2022-09-04T06:17:27;3.67;;;2.47;;
20012;SDS011;10167;42.852;23.042;2022-09-04T06:20:09;5.50;;;3.10;;
20012;SDS011;10167;42.852;23.042;2022-09-04T06:22:54;7.07;;;3.17;;
20012;SDS011;10167;42.852;23.042;2022-09-04T06:25:53;5.50;;;2.90;;
20012;SDS011;10167;42.852;23.042;2022-09-04T06:28:42;5.03;;;2.67;;
20012;SDS011;10167;42.852;23.042;2022-09-04T06:34:36;5.57;;;2.90;;
20012;SDS011;10167;42.852;23.042;2022-09-04T06:37:20;4.57;;;2.95;;
20012;SDS011;10167;42.852;23.042;2022-09-04T06:40:03;9.32;;;2.85;;
20012;SDS011;10167;42.852;23.042;2022-09-04T06:42:46;9.02;;;3.00;;
20012;SDS011;10167;42.852;23.042;2022-09-04T06:48:06;5.35;;;3.10;;
20012;SDS011;10167;42.852;23.042;2022-09-04T06:50:47;6.25;;;3.03;;
20012;SDS011;10167;42.852;23.042;2022-09-04T06:53:27;5.70;;;3.40;;
20012;SDS011;10167;42.852;23.042;2022-09-04T06:59:12;4.88;;;3.03;;
20012;SDS011;10167;42.852;23.042;2022-09-04T07:01:54;7.43;;;3.15;;
20012;SDS011;10167;42.852;23.042;2022-09-04T07:04:39;7.32;;;3.72;;
20012;SDS011;10167;42.852;23.042;2022-09-04T07:07:17;4.38;;;2.78;;
20012;SDS011;10167;42.852;23.042;2022-09-04T07:09:53;9.30;;;4.05;;
20012;SDS011;10167;42.852;23.042;2022-09-04T07:12:36;5.50;;;3.10;;
20012;SDS011;10167;42.852;23.042;2022-09-04T07:15:25;4.43;;;2.70;;
20012;SDS011;10167;42.852;23.042;2022-09-04T07:18:09;9.80;;;3.55;;
20012;SDS011;10167;42.852;23.042;2022-09-04T07:20:47;6.40;;;3.17;;
20012;SDS011;10167;42.852;23.042;2022-09-04T07:23:26;6.70;;;3.28;;
20012;SDS011;10167;42.852;23.042;2022-09-04T07:26:05;5.75;;;3.63;;
20012;SDS011;10167;42.852;23.042;2022-09-04T07:28:55;7.03;;;3.75;;
20012;SDS011;10167;42.852;23.042;2022-09-04T07:31:35;4.72;;;2.97;;
20012;SDS011;10167;42.852;23.042;2022-09-04T07:34:12;4.82;;;3.00;;
20012;SDS011;10167;42.852;23.042;2022-09-04T07:36:48;5.10;;;3.05;;
20012;SDS011;10167;42.852;23.042;2022-09-04T07:39:24;6.47;;;3.55;;
20012;SDS011;10167;42.852;23.042;2022-09-04T07:42:03;6.28;;;3.50;;
20012;SDS011;10167;42.852;23.042;2022-09-04T07:44:42;5.75;;;2.95;;
20012;SDS011;10167;42.852;23.042;2022-09-04T07:47:18;4.25;;;2.97;;
20012;SDS011;10167;42.852;23.042;2022-09-04T07:49:56;4.72;;;3.05;;
20012;SDS011;10167;42.852;23.042;2022-09-04T07:52:38;7.32;;;2.95;;
20012;SDS011;10167;42.852;23.042;2022-09-04T07:55:34;6.20;;;2.97;;
20012;SDS011;10167;42.852;23.042;2022-09-04T07:58:13;5.15;;;2.95;;
20012;SDS011;10167;42.852;23.042;2022-09-04T08:01:06;4.88;;;2.90;;
20012;SDS011;10167;42.852;23.042;2022-09-04T08:03:50;5.85;;;2.95;;
20012;SDS011;10167;42.852;23.042;2022-09-04T08:06:29;5.45;;;2.90;;
20012;SDS011;10167;42.852;23.042;2022-09-04T08:09:07;7.22;;;3.17;;
20012;SDS011;10167;42.852;23.042;2022-09-04T08:15:08;5.68;;;2.83;;
20012;SDS011;10167;42.852;23.042;2022-09-04T08:17:53;6.53;;;3.28;;
20012;SDS011;10167;42.852;23.042;2022-09-04T08:20:43;4.75;;;2.60;;
20012;SDS011;10167;42.852;23.042;2022-09-04T08:25:59;3.97;;;2.55;;
20012;SDS011;10167;42.852;23.042;2022-09-04T08:28:47;3.47;;;2.35;;
20012;SDS011;10167;42.852;23.042;2022-09-04T08:31:29;4.78;;;2.83;;
20012;SDS011;10167;42.852;23.042;2022-09-04T08:34:27;7.03;;;2.60;;
20012;SDS011;10167;42.852;23.042;2022-09-04T08:37:11;5.57;;;3.10;;
20012;SDS011;10167;42.852;23.042;2022-09-04T08:39:54;3.50;;;2.38;;
20012;SDS011;10167;42.852;23.042;2022-09-04T08:42:49;3.38;;;2.50;;
20012;SDS011;10167;42.852;23.042;2022-09-04T08:48:55;3.65;;;2.45;;
20012;SDS011;10167;42.852;23.042;2022-09-04T08:52:20;4.05;;;2.33;;
20012;SDS011;10167;42.852;23.042;2022-09-04T08:55:12;10.43;;;2.65;;
20012;SDS011;10167;42.852;23.042;2022-09-04T09:04:38;4.22;;;2.38;;
20012;SDS011;10167;42.852;23.042;2022-09-04T09:10:36;3.10;;;2.00;;
20012;SDS011;10167;42.852;23.042;2022-09-04T09:13:18;3.92;;;2.30;;
20012;SDS011;10167;42.852;23.042;2022-09-04T09:16:20;3.30;;;2.20;;
20012;SDS011;10167;42.852;23.042;2022-09-04T09:21:41;3.70;;;2.25;;
20012;SDS011;10167;42.852;23.042;2022-09-04T09:24:33;3.17;;;1.90;;
20012;SDS011;10167;42.852;23.042;2022-09-04T09:30:33;8.38;;;2.47;;
20012;SDS011;10167;42.852;23.042;2022-09-04T09:33:30;3.15;;;2.05;;
20012;SDS011;10167;42.852;23.042;2022-09-04T09:42:30;3.85;;;2.08;;
20012;SDS011;10167;42.852;23.042;2022-09-04T09:58:28;3.55;;;2.25;;
20012;SDS011;10167;42.852;23.042;2022-09-04T10:01:32;4.47;;;2.80;;
20012;SDS011;10167;42.852;23.042;2022-09-04T10:04:34;4.95;;;2.50;;
20012;SDS011;10167;42.852;23.042;2022-09-04T10:10:45;3.10;;;2.33;;
20012;SDS011;10167;42.852;23.042;2022-09-04T10:13:44;4.40;;;2.35;;
20012;SDS011;10167;42.852;23.042;2022-09-04T10:16:39;4.57;;;2.33;;
20012;SDS011;10167;42.852;23.042;2022-09-04T10:19:49;4.75;;;2.55;;
20012;SDS011;10167;42.852;23.042;2022-09-04T10:22:50;2.80;;;2.00;;
20012;SDS011;10167;42.852;23.042;2022-09-04T10:25:48;4.05;;;2.33;;
20012;SDS011;10167;42.852;23.042;2022-09-04T10:28:54;4.13;;;2.50;;
20012;SDS011;10167;42.852;23.042;2022-09-04T10:35:08;3.42;;;2.42;;
20012;SDS011;10167;42.852;23.042;2022-09-04T10:37:52;3.47;;;2.42;;
20012;SDS011;10167;42.852;23.042;2022-09-04T10:40:31;9.98;;;3.05;;
20012;SDS011;10167;42.852;23.042;2022-09-04T10:46:15;3.30;;;2.28;;
20012;SDS011;10167;42.852;23.042;2022-09-04T10:48:57;4.40;;;2.42;;
20012;SDS011;10167;42.852;23.042;2022-09-04T10:51:49;6.40;;;2.22;;
20012;SDS011;10167;42.852;23.042;2022-09-04T10:57:50;3.97;;;2.13;;
20012;SDS011;10167;42.852;23.042;2022-09-04T11:00:34;4.05;;;1.80;;
20012;SDS011;10167;42.852;23.042;2022-09-04T11:09:43;4.13;;;1.83;;
20012;SDS011;10167;42.852;23.042;2022-09-04T11:12:30;9.77;;;3.53;;
20012;SDS011;10167;42.852;23.042;2022-09-04T11:15:18;3.77;;;2.30;;
20012;SDS011;10167;42.852;23.042;2022-09-04T11:18:23;2.67;;;1.88;;
20012;SDS011;10167;42.852;23.042;2022-09-04T11:27:55;3.05;;;1.85;;
20012;SDS011;10167;42.852;23.042;2022-09-04T11:30:46;3.08;;;2.00;;
20012;SDS011;10167;42.852;23.042;2022-09-04T11:33:38;3.13;;;2.05;;
20012;SDS011;10167;42.852;23.042;2022-09-04T11:36:45;2.90;;;2.00;;
20012;SDS011;10167;42.852;23.042;2022-09-04T11:39:49;2.58;;;1.90;;
20012;SDS011;10167;42.852;23.042;2022-09-04T11:42:33;7.70;;;2.50;;
20012;SDS011;10167;42.852;23.042;2022-09-04T11:51:35;3.55;;;2.08;;
20012;SDS011;10167;42.852;23.042;2022-09-04T11:54:34;2.67;;;1.92;;
20012;SDS011;10167;42.852;23.042;2022-09-04T11:57:22;3.25;;;2.10;;
20012;SDS011;10167;42.852;23.042;2022-09-04T12:00:05;2.53;;;1.70;;
20012;SDS011;10167;42.852;23.042;2022-09-04T12:05:45;3.28;;;2.05;;
20012;SDS011;10167;42.852;23.042;2022-09-04T12:08:32;5.07;;;2.30;;
20012;SDS011;10167;42.852;23.042;2022-09-04T12:11:22;3.05;;;1.85;;
20012;SDS011;10167;42.852;23.042;2022-09-04T12:14:20;2.78;;;2.22;;
20012;SDS011;10167;42.852;23.042;2022-09-04T12:17:18;4.47;;;1.73;;
20012;SDS011;10167;42.852;23.042;2022-09-04T12:23:16;2.40;;;1.73;;
20012;SDS011;10167;42.852;23.042;2022-09-04T12:26:13;3.08;;;2.03;;
20012;SDS011;10167;42.852;23.042;2022-09-04T12:28:58;2.60;;;1.88;;
20012;SDS011;10167;42.852;23.042;2022-09-04T12:34:44;2.83;;;1.60;;
20012;SDS011;10167;42.852;23.042;2022-09-04T12:37:41;5.20;;;1.88;;
20012;SDS011;10167;42.852;23.042;2022-09-04T12:40:37;2.47;;;1.77;;
20012;SDS011;10167;42.852;23.042;2022-09-04T12:43:17;2.08;;;1.42;;
20012;SDS011;10167;42.852;23.042;2022-09-04T12:45:56;2.85;;;1.80;;
20012;SDS011;10167;42.852;23.042;2022-09-04T12:48:50;1.88;;;1.55;;
20012;SDS011;10167;42.852;23.042;2022-09-04T12:51:33;2.83;;;1.55;;
20012;SDS011;10167;42.852;23.042;2022-09-04T12:54:16;1.60;;;1.40;;
20012;SDS011;10167;42.852;23.042;2022-09-04T12:56:57;2.83;;;1.40;;
20012;SDS011;10167;42.852;23.042;2022-09-04T12:59:40;4.07;;;1.48;;
20012;SDS011;10167;42.852;23.042;2022-09-04T13:02:21;1.85;;;1.30;;
20012;SDS011;10167;42.852;23.042;2022-09-04T13:05:04;4.10;;;1.42;;
20012;SDS011;10167;42.852;23.042;2022-09-04T13:07:45;2.60;;;1.73;;
20012;SDS011;10167;42.852;23.042;2022-09-04T13:10:26;4.38;;;1.60;;
20012;SDS011;10167;42.852;23.042;2022-09-04T13:13:03;2.03;;;1.25;;
20012;SDS011;10167;42.852;23.042;2022-09-04T13:15:44;1.70;;;1.40;;
20012;SDS011;10167;42.852;23.042;2022-09-04T13:18:33;1.73;;;1.08;;
20012;SDS011;10167;42.852;23.042;2022-09-04T13:21:15;1.38;;;1.00;;
20012;SDS011;10167;42.852;23.042;2022-09-04T13:24:00;1.70;;;1.30;;
20012;SDS011;10167;42.852;23.042;2022-09-04T13:26:56;1.15;;;1.00;;
20012;SDS011;10167;42.852;23.042;2022-09-04T13:29:38;3.33;;;1.17;;
20012;SDS011;10167;42.852;23.042;2022-09-04T13:32:26;2.90;;;1.35;;
20012;SDS011;10167;42.852;23.042;2022-09-04T13:35:09;2.58;;;1.33;;
20012;SDS011;10167;42.852;23.042;2022-09-04T13:37:52;1.50;;;1.20;;
20012;SDS011;10167;42.852;23.042;2022-09-04T13:40:40;1.65;;;1.10;;
20012;SDS011;10167;42.852;23.042;2022-09-04T13:43:34;1.50;;;1.15;;
20012;SDS011;10167;42.852;23.042;2022-09-04T13:46:19;2.65;;;1.40;;
20012;SDS011;10167;42.852;23.042;2022-09-04T13:48:55;2.15;;;1.23;;
20012;SDS011;10167;42.852;23.042;2022-09-04T13:51:29;2.45;;;1.50;;
20012;SDS011;10167;42.852;23.042;2022-09-04T13:54:04;3.38;;;1.48;;
20012;SDS011;10167;42.852;23.042;2022-09-04T13:56:37;3.03;;;1.67;;
20012;SDS011;10167;42.852;23.042;2022-09-04T13:59:13;4.35;;;1.85;;
20012;SDS011;10167;42.852;23.042;2022-09-04T14:01:47;3.78;;;1.70;;
20012;SDS011;10167;42.852;23.042;2022-09-04T14:04:20;1.63;;;1.35;;
20012;SDS011;10167;42.852;23.042;2022-09-04T14:06:53;1.73;;;1.48;;
20012;SDS011;10167;42.852;23.042;2022-09-04T14:09:28;1.50;;;1.30;;
20012;SDS011;10167;42.852;23.042;2022-09-04T14:12:11;2.83;;;1.98;;
20012;SDS011;10167;42.852;23.042;2022-09-04T14:17:49;2.75;;;1.90;;
20012;SDS011;10167;42.852;23.042;2022-09-04T14:20:27;2.97;;;1.40;;
20012;SDS011;10167;42.852;23.042;2022-09-04T14:23:02;2.75;;;1.80;;
20012;SDS011;10167;42.852;23.042;2022-09-04T14:25:39;3.80;;;1.75;;
20012;SDS011;10167;42.852;23.042;2022-09-04T14:28:18;3.13;;;2.17;;
20012;SDS011;10167;42.852;23.042;2022-09-04T14:30:55;5.35;;;1.80;;
20012;SDS011;10167;42.852;23.042;2022-09-04T14:33:40;2.80;;;1.67;;
20012;SDS011;10167;42.852;23.042;2022-09-04T14:36:17;2.38;;;1.65;;
20012;SDS011;10167;42.852;23.042;2022-09-04T14:39:11;2.20;;;1.65;;
20012;SDS011;10167;42.852;23.042;2022-09-04T14:41:53;2.65;;;1.52;;
20012;SDS011;10167;42.852;23.042;2022-09-04T14:44:46;3.60;;;2.03;;
20012;SDS011;10167;42.852;23.042;2022-09-04T14:47:33;2.47;;;1.77;;
20012;SDS011;10167;42.852;23.042;2022-09-04T14:50:09;1.80;;;1.25;;
20012;SDS011;10167;42.852;23.042;2022-09-04T14:52:40;3.78;;;2.20;;
20012;SDS011;10167;42.852;23.042;2022-09-04T14:55:13;2.38;;;1.83;;
20012;SDS011;10167;42.852;23.042;2022-09-04T14:57:46;3.83;;;2.15;;
20012;SDS011;10167;42.852;23.042;2022-09-04T15:00:21;1.92;;;1.45;;
20012;SDS011;10167;42.852;23.042;2022-09-04T15:02:55;1.85;;;1.38;;
20012;SDS011;10167;42.852;23.042;2022-09-04T15:05:33;5.53;;;1.80;;
20012;SDS011;10167;42.852;23.042;2022-09-04T15:08:23;3.13;;;1.75;;
20012;SDS011;10167;42.852;23.042;2022-09-04T15:10:55;2.55;;;1.70;;
20012;SDS011;10167;42.852;23.042;2022-09-04T15:16:20;3.22;;;1.70;;
20012;SDS011;10167;42.852;23.042;2022-09-04T15:18:58;3.70;;;1.70;;
20012;SDS011;10167;42.852;23.042;2022-09-04T15:21:37;15.45;;;1.98;;
20012;SDS011;10167;42.852;23.042;2022-09-04T15:24:18;2.03;;;1.70;;
20012;SDS011;10167;42.852;23.042;2022-09-04T15:26:55;2.70;;;1.60;;
20012;SDS011;10167;42.852;23.042;2022-09-04T15:29:32;2.38;;;1.50;;
20012;SDS011;10167;42.852;23.042;2022-09-04T15:32:07;7.00;;;3.22;;
20012;SDS011;10167;42.852;23.042;2022-09-04T15:34:41;3.05;;;1.77;;
20012;SDS011;10167;42.852;23.042;2022-09-04T15:37:12;2.63;;;1.52;;
20012;SDS011;10167;42.852;23.042;2022-09-04T15:39:50;1.90;;;1.50;;
20012;SDS011;10167;42.852;23.042;2022-09-04T15:42:31;1.83;;;1.30;;
20012;SDS011;10167;42.852;23.042;2022-09-04T15:45:04;2.40;;;1.70;;
20012;SDS011;10167;42.852;23.042;2022-09-04T15:47:42;2.40;;;1.52;;
20012;SDS011;10167;42.852;23.042;2022-09-04T15:50:30;2.38;;;1.60;;
20012;SDS011;10167;42.852;23.042;2022-09-04T15:53:09;4.03;;;1.80;;
20012;SDS011;10167;42.852;23.042;2022-09-04T15:55:43;3.08;;;1.70;;
20012;SDS011;10167;42.852;23.042;2022-09-04T15:58:15;2.55;;;1.85;;
20012;SDS011;10167;42.852;23.042;2022-09-04T16:01:04;3.58;;;2.00;;
20012;SDS011;10167;42.852;23.042;2022-09-04T16:03:59;2.78;;;1.50;;
20012;SDS011;10167;42.852;23.042;2022-09-04T16:06:43;3.53;;;1.60;;
20012;SDS011;10167;42.852;23.042;2022-09-04T16:09:19;2.65;;;1.80;;
20012;SDS011;10167;42.852;23.042;2022-09-04T16:11:55;4.32;;;1.88;;
20012;SDS011;10167;42.852;23.042;2022-09-04T16:14:32;2.20;;;1.67;;
20012;SDS011;10167;42.852;23.042;2022-09-04T16:17:11;2.45;;;1.65;;
20012;SDS011;10167;42.852;23.042;2022-09-04T16:19:47;5.40;;;2.00;;
20012;SDS011;10167;42.852;23.042;2022-09-04T16:22:27;4.60;;;2.10;;
20012;SDS011;10167;42.852;23.042;2022-09-04T16:25:05;2.90;;;1.83;;
20012;SDS011;10167;42.852;23.042;2022-09-04T16:27:38;4.20;;;1.83;;
20012;SDS011;10167;42.852;23.042;2022-09-04T16:30:24;1.90;;;1.10;;
20012;SDS011;10167;42.852;23.042;2022-09-04T16:32:58;2.90;;;1.35;;
20012;SDS011;10167;42.852;23.042;2022-09-04T16:35:30;2.10;;;1.30;;
20012;SDS011;10167;42.852;23.042;2022-09-04T16:38:05;2.70;;;1.58;;
20012;SDS011;10167;42.852;23.042;2022-09-04T16:40:41;2.97;;;1.60;;
20012;SDS011;10167;42.852;23.042;2022-09-04T16:43:19;2.70;;;1.50;;
20012;SDS011;10167;42.852;23.042;2022-09-04T16:45:55;1.85;;;1.52;;
20012;SDS011;10167;42.852;23.042;2022-09-04T16:48:36;4.50;;;1.77;;
20012;SDS011;10167;42.852;23.042;2022-09-04T16:51:14;2.28;;;1.35;;
20012;SDS011;10167;42.852;23.042;2022-09-04T16:54:10;5.30;;;2.33;;
20012;SDS011;10167;42.852;23.042;2022-09-04T16:56:45;2.40;;;1.33;;
20012;SDS011;10167;42.852;23.042;2022-09-04T17:02:15;2.72;;;1.58;;
20012;SDS011;10167;42.852;23.042;2022-09-04T17:04:50;2.22;;;1.75;;
20012;SDS011;10167;42.852;23.042;2022-09-04T17:07:26;4.03;;;1.92;;
20012;SDS011;10167;42.852;23.042;2022-09-04T17:10:03;6.40;;;1.90;;
20012;SDS011;10167;42.852;23.042;2022-09-04T17:12:40;5.13;;;1.85;;
20012;SDS011;10167;42.852;23.042;2022-09-04T17:15:19;3.47;;;2.10;;
20012;SDS011;10167;42.852;23.042;2022-09-04T17:17:54;2.10;;;1.50;;
20012;SDS011;10167;42.852;23.042;2022-09-04T17:20:25;4.25;;;1.77;;
20012;SDS011;10167;42.852;23.042;2022-09-04T17:23:22;3.58;;;1.90;;
20012;SDS011;10167;42.852;23.042;2022-09-04T17:26:18;4.20;;;2.63;;
20012;SDS011;10167;42.852;23.042;2022-09-04T17:29:15;4.22;;;1.80;;
20012;SDS011;10167;42.852;23.042;2022-09-04T17:32:02;3.95;;;1.73;;
20012;SDS011;10167;42.852;23.042;2022-09-04T17:35:00;3.42;;;1.60;;
20012;SDS011;10167;42.852;23.042;2022-09-04T17:38:01;4.68;;;1.70;;
20012;SDS011;10167;42.852;23.042;2022-09-04T17:40:59;1.60;;;1.35;;
20012;SDS011;10167;42.852;23.042;2022-09-04T17:44:02;8.93;;;1.65;;
20012;SDS011;10167;42.852;23.042;2022-09-04T17:46:43;2.60;;;1.70;;
20012;SDS011;10167;42.852;23.042;2022-09-04T17:49:17;1.75;;;1.60;;
20012;SDS011;10167;42.852;23.042;2022-09-04T17:52:01;2.70;;;1.38;;
20012;SDS011;10167;42.852;23.042;2022-09-04T17:54:36;3.53;;;1.55;;
20012;SDS011;10167;42.852;23.042;2022-09-04T17:57:10;2.90;;;2.08;;
20012;SDS011;10167;42.852;23.042;2022-09-04T17:59:50;2.53;;;1.60;;
20012;SDS011;10167;42.852;23.042;2022-09-04T18:02:32;4.57;;;2.20;;
20012;SDS011;10167;42.852;23.042;2022-09-04T18:05:10;5.03;;;2.53;;
20012;SDS011;10167;42.852;23.042;2022-09-04T18:07:47;2.50;;;1.80;;
20012;SDS011;10167;42.852;23.042;2022-09-04T18:10:46;5.38;;;3.00;;
20012;SDS011;10167;42.852;23.042;2022-09-04T18:16:11;4.05;;;2.53;;
20012;SDS011;10167;42.852;23.042;2022-09-04T18:18:45;3.28;;;2.03;;
20012;SDS011;10167;42.852;23.042;2022-09-04T18:21:20;2.28;;;1.80;;
20012;SDS011;10167;42.852;23.042;2022-09-04T18:23:58;3.85;;;2.08;;
20012;SDS011;10167;42.852;23.042;2022-09-04T18:26:30;1.95;;;1.35;;
20012;SDS011;10167;42.852;23.042;2022-09-04T18:29:23;2.05;;;1.38;;
20012;SDS011;10167;42.852;23.042;2022-09-04T18:32:29;1.90;;;1.15;;
20012;SDS011;10167;42.852;23.042;2022-09-04T18:35:32;3.22;;;1.60;;